createdAt,value
2023-02-13T00:01:04.964Z,5.20
2023-02-13T00:03:33.199Z,4.80
2023-02-13T00:06:01.462Z,7.00
2023-02-13T00:08:29.653Z,9.00
2023-02-13T00:10:58.013Z,7.40
2023-02-13T00:13:26.483Z,0.80
2023-02-13T00:15:58.453Z,14.20
2023-02-13T00:18:28.304Z,8.20
2023-02-13T00:21:00.431Z,10.00
2023-02-13T00:23:28.576Z,9.60
2023-02-13T00:25:56.711Z,7.00
2023-02-13T00:28:25.187Z,7.00
2023-02-13T00:30:53.557Z,10.00
2023-02-13T00:33:21.724Z,7.00
2023-02-13T00:35:51.340Z,8.80
2023-02-13T00:38:19.627Z,9.00
2023-02-13T00:40:47.906Z,10.00
2023-02-13T00:43:16.085Z,11.20
2023-02-13T00:45:44.281Z,10.00
2023-02-13T00:48:12.435Z,10.00
2023-02-13T00:50:40.557Z,10.20
2023-02-13T00:53:12.308Z,11.20
2023-02-13T00:55:40.537Z,9.00
2023-02-13T00:58:10.416Z,12.00
2023-02-13T01:00:38.577Z,13.00
2023-02-13T01:03:07.124Z,12.60
2023-02-13T01:05:35.583Z,11.60
2023-02-13T01:08:04.560Z,12.20
2023-02-13T01:10:34.758Z,17.20
2023-02-13T01:13:03.027Z,19.40
2023-02-13T01:15:32.583Z,23.20
2023-02-13T01:18:01.150Z,0.40
2023-02-13T01:20:29.858Z,14.00
2023-02-13T01:22:58.711Z,18.40
2023-02-13T01:25:27.410Z,13.00
2023-02-13T01:27:57.027Z,13.80
2023-02-13T01:30:25.275Z,15.00
2023-02-13T01:32:53.503Z,13.00
2023-02-13T01:35:21.791Z,13.60
2023-02-13T01:37:50.009Z,10.00
2023-02-13T01:40:18.531Z,16.00
2023-02-13T01:42:46.747Z,18.60
2023-02-13T01:45:23.861Z,16.20
2023-02-13T01:47:54.035Z,1.00
2023-02-13T01:50:30.042Z,11.60
2023-02-13T01:52:59.519Z,9.60
2023-02-13T01:55:28.756Z,10.40
2023-02-13T01:58:01.531Z,13.80
2023-02-13T02:00:31.225Z,21.00
2023-02-13T02:03:01.978Z,29.60
2023-02-13T02:05:32.169Z,31.20
2023-02-13T02:08:02.029Z,28.80
2023-02-13T02:10:32.713Z,24.00
2023-02-13T02:13:05.493Z,15.40
2023-02-13T02:15:36.501Z,14.60
2023-02-13T02:18:04.989Z,14.20
2023-02-13T02:20:55.596Z,6.60
2023-02-13T02:23:46.626Z,23.20
2023-02-13T02:26:38.866Z,15.00
2023-02-13T02:29:20.613Z,6.40
2023-02-13T02:31:57.939Z,10.80
2023-02-13T02:34:33.714Z,9.20
2023-02-13T02:37:07.329Z,9.00
2023-02-13T02:39:42.443Z,9.20
2023-02-13T02:42:19.267Z,9.00
2023-02-13T02:44:52.728Z,11.20
2023-02-13T02:47:44.358Z,4.00
2023-02-13T02:50:28.405Z,12.00
2023-02-13T02:53:02.472Z,15.60
2023-02-13T02:55:35.433Z,12.60
2023-02-13T02:58:27.411Z,14.60
2023-02-13T03:01:16.406Z,16.40
2023-02-13T03:04:04.573Z,15.60
2023-02-13T03:06:36.905Z,12.20
2023-02-13T03:09:25.303Z,5.20
2023-02-13T03:12:13.150Z,6.60
2023-02-13T03:14:41.319Z,10.40
2023-02-13T03:17:28.667Z,10.00
2023-02-13T03:20:17.196Z,6.40
2023-02-13T03:22:51.789Z,8.20
2023-02-13T03:25:30.431Z,12.40
2023-02-13T03:28:17.871Z,11.20
2023-02-13T03:30:52.878Z,3.00
2023-02-13T03:33:28.941Z,13.40
2023-02-13T03:36:20.728Z,14.20
2023-02-13T03:38:54.052Z,13.20
2023-02-13T03:41:26.592Z,20.20
2023-02-13T03:43:59.658Z,9.20
2023-02-13T03:46:28.586Z,9.00
2023-02-13T03:49:11.499Z,18.00
2023-02-13T03:51:45.347Z,18.00
2023-02-13T03:54:18.248Z,15.00
2023-02-13T03:57:04.229Z,15.00
2023-02-13T03:59:35.272Z,16.00
2023-02-13T04:02:07.727Z,5.80
2023-02-13T04:04:41.406Z,11.40
2023-02-13T04:07:13.006Z,9.60
2023-02-13T04:09:42.945Z,15.80
2023-02-13T04:12:15.753Z,12.60
2023-02-13T04:14:49.896Z,13.20
2023-02-13T04:17:21.518Z,13.40
2023-02-13T04:19:49.757Z,12.00
2023-02-13T04:22:19.664Z,14.40
2023-02-13T04:24:47.976Z,14.60
2023-02-13T04:27:16.770Z,12.60
2023-02-13T04:29:45.291Z,14.60
2023-02-13T04:32:14.409Z,15.80
2023-02-13T04:34:42.546Z,11.20
2023-02-13T04:37:10.696Z,14.20
2023-02-13T04:39:40.190Z,15.00
2023-02-13T04:42:08.302Z,12.40
2023-02-13T04:44:36.569Z,13.80
2023-02-13T04:47:04.987Z,14.60
2023-02-13T04:49:33.112Z,16.00
2023-02-13T04:52:01.262Z,13.00
2023-02-13T04:54:29.496Z,15.20
2023-02-13T04:56:59.027Z,19.80
2023-02-13T04:59:27.182Z,9.00
2023-02-13T05:01:55.395Z,17.60
2023-02-13T05:04:23.700Z,19.80
2023-02-13T05:06:52.033Z,15.20
2023-02-13T05:09:20.383Z,15.40
2023-02-13T05:11:48.557Z,12.00
2023-02-13T05:14:18.119Z,11.60
2023-02-13T05:16:46.330Z,9.00
2023-02-13T05:19:14.699Z,10.40
2023-02-13T05:22:00.437Z,8.60
2023-02-13T05:24:28.580Z,9.80
2023-02-13T05:26:56.667Z,9.40
2023-02-13T05:29:26.233Z,9.20
2023-02-13T05:31:55.425Z,3.80
2023-02-13T05:34:24.618Z,6.60
2023-02-13T05:36:52.778Z,9.00
2023-02-13T05:39:20.967Z,8.20
2023-02-13T05:41:49.464Z,6.80
2023-02-13T05:44:17.870Z,6.20
2023-02-13T05:46:47.714Z,5.20
2023-02-13T05:49:16.534Z,4.40
2023-02-13T05:51:46.694Z,1.00
2023-02-13T05:54:15.003Z,6.40
2023-02-13T05:56:43.119Z,7.00
2023-02-13T05:59:11.227Z,4.00
2023-02-13T06:01:39.384Z,7.00
2023-02-13T06:04:09.105Z,6.80
2023-02-13T06:06:37.492Z,9.20
2023-02-13T06:09:05.794Z,3.40
2023-02-13T06:11:33.999Z,10.00
2023-02-13T06:14:02.141Z,12.40
2023-02-13T06:16:31.424Z,7.00
2023-02-13T06:18:59.776Z,10.60
2023-02-13T06:21:29.421Z,10.00
2023-02-13T06:23:57.594Z,12.00
2023-02-13T06:26:26.164Z,21.40
2023-02-13T06:28:54.465Z,17.40
2023-02-13T06:31:23.002Z,21.80
2023-02-13T06:33:51.274Z,19.00
2023-02-13T06:36:19.527Z,20.20
2023-02-13T06:38:49.198Z,19.40
2023-02-13T06:41:17.545Z,16.80
2023-02-13T06:43:45.935Z,20.20
2023-02-13T06:46:14.214Z,18.00
2023-02-13T06:48:42.501Z,12.20
2023-02-13T06:51:10.848Z,15.40
2023-02-13T06:53:39.851Z,15.40
2023-02-13T06:56:09.450Z,17.60
2023-02-13T06:58:38.868Z,21.40
2023-02-13T07:01:07.420Z,19.80
2023-02-13T07:03:35.612Z,20.20
2023-02-13T07:06:03.793Z,20.60
2023-02-13T07:08:31.971Z,24.00
2023-02-13T07:11:00.417Z,26.40
2023-02-13T07:13:30.731Z,19.00
2023-02-13T07:16:02.394Z,22.80
2023-02-13T07:18:30.977Z,27.00
2023-02-13T07:20:59.567Z,25.40
2023-02-13T07:23:28.122Z,0.00
2023-02-13T07:25:59.984Z,19.80
2023-02-13T07:28:28.569Z,10.80
2023-02-13T07:30:58.936Z,25.00
2023-02-13T07:33:27.400Z,26.60
2023-02-13T07:35:55.587Z,19.00
2023-02-13T07:38:23.732Z,16.80
2023-02-13T07:40:51.958Z,16.00
2023-02-13T07:43:20.263Z,18.80
2023-02-13T07:45:48.846Z,15.60
2023-02-13T07:48:21.021Z,20.40
2023-02-13T07:50:51.157Z,17.20
2023-02-13T07:53:19.412Z,16.00
2023-02-13T07:55:47.753Z,14.20
2023-02-13T07:58:16.916Z,12.80
2023-02-13T08:00:45.340Z,17.60
2023-02-13T08:03:13.692Z,17.80
2023-02-13T08:05:46.408Z,16.00
2023-02-13T08:08:14.653Z,15.80
2023-02-13T08:11:00.922Z,12.40
2023-02-13T08:13:29.501Z,16.00
2023-02-13T08:15:58.002Z,14.60
2023-02-13T08:18:26.404Z,15.00
2023-02-13T08:20:56.040Z,9.80
2023-02-13T08:23:25.415Z,18.00
2023-02-13T08:25:55.024Z,17.20
2023-02-13T08:28:24.045Z,18.20
2023-02-13T08:30:52.824Z,7.40
2023-02-13T08:33:21.082Z,19.00
2023-02-13T08:35:49.436Z,16.40
2023-02-13T08:38:19.096Z,12.00
2023-02-13T08:40:47.463Z,13.40
2023-02-13T08:43:15.795Z,11.20
2023-02-13T08:45:44.060Z,14.60
2023-02-13T08:48:12.228Z,11.20
2023-02-13T08:50:40.377Z,12.20
2023-02-13T08:53:08.808Z,11.20
2023-02-13T08:55:38.369Z,11.60
2023-02-13T08:58:06.793Z,12.00
2023-02-13T09:00:35.255Z,9.00
2023-02-13T09:03:03.689Z,11.60
2023-02-13T09:05:32.889Z,8.80
2023-02-13T09:08:02.958Z,15.00
2023-02-13T09:10:31.260Z,9.60
2023-02-13T09:13:01.451Z,10.40
2023-02-13T09:15:29.625Z,13.00
2023-02-13T09:17:57.896Z,13.00
2023-02-13T09:20:26.127Z,9.50
2023-02-13T09:22:56.050Z,10.50
2023-02-13T09:25:24.459Z,14.00
2023-02-13T09:27:53.644Z,11.00
2023-02-13T09:30:26.279Z,11.00
2023-02-13T09:32:55.343Z,10.00
2023-02-13T09:35:23.733Z,11.50
2023-02-13T09:37:51.982Z,10.50
2023-02-13T09:40:23.767Z,11.50
2023-02-13T09:42:54.008Z,12.75
2023-02-13T09:45:23.925Z,10.50
2023-02-13T09:47:52.302Z,11.50
2023-02-13T09:50:23.480Z,9.00
2023-02-13T09:52:53.012Z,11.60
2023-02-13T09:55:23.131Z,12.00
2023-02-13T09:57:58.768Z,9.40
2023-02-13T10:00:34.045Z,11.20
2023-02-13T10:03:14.786Z,6.20
2023-02-13T10:05:48.006Z,3.60
2023-02-13T10:08:25.460Z,11.20
2023-02-13T10:10:55.450Z,12.00
2023-02-13T10:13:32.669Z,17.40
2023-02-13T10:16:07.523Z,15.00
2023-02-13T10:18:44.560Z,12.80
2023-02-13T10:21:14.903Z,16.00
2023-02-13T10:23:44.859Z,12.00
2023-02-13T10:26:20.171Z,16.20
2023-02-13T10:29:11.320Z,15.00
2023-02-13T10:31:42.478Z,14.20
2023-02-13T10:34:15.611Z,1.00
2023-02-13T10:36:45.937Z,13.80
2023-02-13T10:39:22.964Z,8.75
2023-02-13T10:41:53.088Z,12.60
2023-02-13T10:44:28.439Z,12.00
2023-02-13T10:47:03.618Z,9.80
2023-02-13T10:49:48.749Z,14.20
2023-02-13T10:52:21.532Z,11.00
2023-02-13T10:54:56.684Z,11.60
2023-02-13T10:57:29.930Z,21.40
2023-02-13T11:00:04.137Z,18.00
2023-02-13T11:02:36.795Z,18.00
2023-02-13T11:05:14.090Z,14.60
2023-02-13T11:07:43.387Z,16.00
2023-02-13T11:10:18.404Z,21.80
2023-02-13T11:12:47.156Z,19.00
2023-02-13T11:15:22.738Z,15.60
2023-02-13T11:17:53.270Z,17.60
2023-02-13T11:20:27.321Z,17.60
2023-02-13T11:22:56.814Z,16.20
2023-02-13T11:25:27.499Z,4.00
2023-02-13T11:28:07.288Z,17.00
2023-02-13T11:30:36.572Z,15.60
2023-02-13T11:33:07.543Z,12.20
2023-02-13T11:35:36.666Z,16.00
2023-02-13T11:38:22.149Z,10.00
2023-02-13T11:40:53.416Z,9.50
2023-02-13T11:43:25.961Z,12.60
2023-02-13T11:46:03.082Z,14.00
2023-02-13T11:48:33.424Z,14.60
2023-02-13T11:51:02.193Z,14.20
2023-02-13T11:53:31.768Z,13.00
2023-02-13T11:56:04.334Z,14.60
2023-02-13T11:58:33.449Z,11.60
2023-02-13T12:01:12.943Z,10.00
2023-02-13T12:03:43.325Z,6.20
2023-02-13T12:06:14.500Z,7.00
2023-02-13T12:08:43.653Z,15.00
2023-02-13T12:11:18.869Z,11.20
2023-02-13T12:13:47.399Z,12.00
2023-02-13T12:16:22.878Z,12.80
2023-02-13T12:18:54.615Z,8.20
2023-02-13T12:21:29.906Z,12.00
2023-02-13T12:24:04.382Z,10.00
2023-02-13T12:26:36.717Z,7.80
2023-02-13T12:29:15.755Z,13.80
2023-02-13T12:31:52.113Z,13.00
2023-02-13T12:34:35.273Z,6.20
2023-02-13T12:37:15.153Z,9.80
2023-02-13T12:39:48.052Z,12.80
2023-02-13T12:42:23.537Z,9.40
2023-02-13T12:45:06.761Z,13.40
2023-02-13T12:47:40.575Z,12.00
2023-02-13T12:50:18.990Z,16.00
2023-02-13T12:53:05.967Z,15.80
2023-02-13T12:55:53.052Z,16.40
2023-02-13T12:58:33.532Z,18.60
2023-02-13T13:01:06.619Z,15.80
2023-02-13T13:03:41.556Z,16.00
2023-02-13T13:06:14.967Z,14.20
2023-02-13T13:08:55.340Z,16.00
2023-02-13T13:11:31.246Z,15.80
2023-02-13T13:14:02.730Z,16.00
2023-02-13T13:16:38.631Z,12.80
2023-02-13T13:19:13.237Z,12.00
2023-02-13T13:21:48.343Z,15.40
2023-02-13T13:24:33.345Z,12.00
2023-02-13T13:27:03.520Z,15.00
2023-02-13T13:29:44.413Z,15.00
2023-02-13T13:32:15.894Z,14.60
2023-02-13T13:34:44.280Z,14.20
2023-02-13T13:37:15.584Z,12.20
2023-02-13T13:39:53.642Z,14.60
2023-02-13T13:42:24.574Z,13.00
2023-02-13T13:45:03.376Z,10.00
2023-02-13T13:47:41.942Z,12.50
2023-02-13T13:50:19.637Z,10.00
2023-02-13T13:53:02.831Z,12.00
2023-02-13T13:55:49.546Z,11.00
2023-02-13T13:58:24.316Z,11.75
2023-02-13T14:01:07.403Z,13.80
2023-02-13T14:03:37.327Z,9.75
2023-02-13T14:06:07.042Z,17.20
2023-02-13T14:09:06.306Z,17.40
2023-02-13T14:11:42.012Z,15.00
2023-02-13T14:14:29.186Z,5.00
2023-02-13T14:16:59.679Z,15.80
2023-02-13T14:19:30.854Z,10.50
2023-02-13T14:22:13.902Z,14.50
2023-02-13T14:24:44.255Z,11.50
2023-02-13T14:27:22.217Z,9.75
2023-02-13T14:29:50.940Z,10.00
2023-02-13T14:32:23.736Z,10.00
2023-02-13T14:34:57.978Z,7.00
2023-02-13T14:37:31.713Z,10.00
2023-02-13T14:40:20.809Z,10.00
2023-02-13T14:42:53.214Z,7.50
2023-02-13T14:45:29.596Z,6.00
2023-02-13T14:48:06.503Z,7.00
2023-02-13T14:50:41.496Z,9.50
2023-02-13T14:53:16.159Z,9.00
2023-02-13T14:55:46.723Z,11.50
2023-02-13T14:58:17.695Z,14.50
2023-02-13T15:00:47.962Z,13.75
2023-02-13T15:03:25.208Z,11.00
2023-02-13T15:05:55.499Z,12.75
2023-02-13T15:08:26.497Z,6.75
2023-02-13T15:10:57.941Z,14.60
2023-02-13T15:13:29.343Z,13.40
2023-02-13T15:15:59.708Z,11.60
2023-02-13T15:18:30.488Z,15.40
2023-02-13T15:21:00.926Z,16.00
2023-02-13T15:23:30.883Z,15.00
2023-02-13T15:25:59.848Z,16.80
2023-02-13T15:28:28.411Z,9.40
2023-02-13T15:31:01.036Z,15.00
2023-02-13T15:33:33.807Z,9.60
2023-02-13T15:36:03.021Z,9.80
2023-02-13T15:38:32.101Z,8.60
2023-02-13T15:41:02.110Z,7.00
2023-02-13T15:43:34.213Z,10.60
2023-02-13T15:46:04.280Z,9.00
2023-02-13T15:48:34.798Z,8.60
2023-02-13T15:51:03.936Z,10.80
2023-02-13T15:53:32.252Z,9.00
2023-02-13T15:56:01.626Z,7.80
2023-02-13T15:58:32.186Z,11.20
2023-02-13T16:01:06.121Z,8.60
2023-02-13T16:03:37.085Z,8.60
2023-02-13T16:06:06.667Z,9.00
2023-02-13T16:08:38.462Z,9.60
2023-02-13T16:11:27.317Z,11.20
2023-02-13T16:14:04.408Z,13.20
2023-02-13T16:16:35.184Z,0.00
2023-02-13T16:19:05.356Z,11.20
2023-02-13T16:21:36.183Z,15.00
2023-02-13T16:24:07.893Z,12.60
2023-02-13T16:26:39.350Z,10.40
2023-02-13T16:29:10.542Z,15.00
2023-02-13T16:31:40.595Z,13.80
2023-02-13T16:34:24.763Z,7.00
2023-02-13T16:36:53.074Z,12.00
2023-02-13T16:39:24.433Z,18.40
2023-02-13T16:41:53.443Z,18.60
2023-02-13T16:44:29.180Z,18.00
2023-02-13T16:46:58.356Z,21.00
2023-02-13T16:49:29.773Z,16.80
2023-02-13T16:52:00.192Z,22.40
2023-02-13T16:54:30.628Z,18.40
2023-02-13T16:57:00.375Z,19.80
2023-02-13T16:59:34.667Z,14.60
2023-02-13T17:02:20.431Z,16.80
2023-02-13T17:04:51.485Z,18.40
2023-02-13T17:07:23.915Z,20.60
2023-02-13T17:09:56.857Z,13.00
2023-02-13T17:12:25.408Z,15.40
2023-02-13T17:14:53.966Z,11.60
2023-02-13T17:17:24.049Z,10.50
2023-02-13T17:19:53.725Z,15.00
2023-02-13T17:22:30.850Z,13.80
2023-02-13T17:24:59.137Z,10.00
2023-02-13T17:27:28.223Z,15.00
2023-02-13T17:29:56.630Z,12.00
2023-02-13T17:32:26.409Z,15.00
2023-02-13T17:34:56.224Z,10.00
2023-02-13T17:37:28.481Z,11.50
2023-02-13T17:39:56.693Z,13.50
2023-02-13T17:42:26.232Z,9.25
2023-02-13T17:44:55.257Z,12.75
2023-02-13T17:47:23.611Z,10.00
2023-02-13T17:49:55.143Z,9.00
2023-02-13T17:52:28.100Z,8.75
2023-02-13T17:54:56.380Z,13.25
2023-02-13T17:57:24.605Z,11.60
2023-02-13T17:59:52.924Z,9.50
2023-02-13T18:02:22.266Z,12.80
2023-02-13T18:04:50.706Z,12.00
2023-02-13T18:07:19.646Z,13.00
2023-02-13T18:09:51.591Z,13.80
2023-02-13T18:12:21.461Z,1.20
2023-02-13T18:14:50.659Z,11.20
2023-02-13T18:17:19.516Z,16.40
2023-02-13T18:19:47.879Z,17.20
2023-02-13T18:22:16.140Z,17.60
2023-02-13T18:24:45.117Z,16.00
2023-02-13T18:27:15.009Z,18.00
2023-02-13T18:29:43.275Z,15.20
2023-02-13T18:32:12.628Z,13.00
2023-02-13T18:34:40.842Z,16.80
2023-02-13T18:37:09.869Z,21.80
2023-02-13T18:39:38.238Z,15.00
2023-02-13T18:42:06.527Z,16.00
2023-02-13T18:44:36.806Z,22.80
2023-02-13T18:47:05.084Z,16.00
2023-02-13T18:49:33.247Z,18.40
2023-02-13T18:52:02.488Z,12.80
2023-02-13T18:54:31.266Z,15.00
2023-02-13T18:56:59.447Z,14.20
2023-02-13T18:59:28.015Z,13.80
2023-02-13T19:01:57.590Z,13.00
2023-02-13T19:04:25.759Z,13.00
2023-02-13T19:06:55.022Z,15.40
2023-02-13T19:09:23.211Z,10.80
2023-02-13T19:11:51.811Z,13.00
2023-02-13T19:14:20.017Z,12.40
2023-02-13T19:16:48.226Z,12.40
2023-02-13T19:19:17.801Z,12.80
2023-02-13T19:21:47.215Z,12.40
2023-02-13T19:24:15.982Z,11.60
2023-02-13T19:26:44.766Z,12.60
2023-02-13T19:29:18.539Z,3.00
2023-02-13T19:31:48.865Z,12.60
2023-02-13T19:34:21.376Z,8.80
2023-02-13T19:36:49.506Z,10.00
2023-02-13T19:39:17.912Z,12.00
2023-02-13T19:41:46.263Z,6.50
2023-02-13T19:44:14.472Z,7.80
2023-02-13T19:46:43.463Z,10.50
2023-02-13T19:49:12.217Z,9.80
2023-02-13T19:51:42.605Z,9.50
2023-02-13T19:54:13.038Z,7.00
2023-02-13T19:56:41.371Z,6.75
2023-02-13T19:59:12.431Z,9.25
2023-02-13T20:01:42.984Z,8.00
2023-02-13T20:04:11.389Z,7.00
2023-02-13T20:06:39.857Z,6.75
2023-02-13T20:09:10.581Z,6.75
2023-02-13T20:11:38.732Z,6.00
2023-02-13T20:14:11.619Z,7.00
2023-02-13T20:16:40.481Z,9.00
2023-02-13T20:19:11.760Z,7.00
2023-02-13T20:21:41.556Z,8.60
2023-02-13T20:24:12.053Z,6.50
2023-02-13T20:26:40.936Z,6.25
2023-02-13T20:29:11.053Z,6.00
2023-02-13T20:31:46.248Z,4.50
2023-02-13T20:34:14.481Z,6.50
2023-02-13T20:36:42.873Z,6.00
2023-02-13T20:39:13.100Z,7.00
2023-02-13T20:41:43.287Z,9.00
2023-02-13T20:44:13.439Z,3.00
2023-02-13T20:46:45.356Z,6.00
2023-02-13T20:49:18.900Z,3.25
2023-02-13T20:51:47.293Z,3.50
2023-02-13T20:54:17.076Z,4.00
2023-02-13T20:56:46.318Z,3.50
2023-02-13T20:59:14.516Z,6.00
2023-02-13T21:01:44.177Z,6.00
2023-02-13T21:04:14.862Z,5.50
2023-02-13T21:06:43.132Z,3.00
2023-02-13T21:09:11.447Z,6.00
2023-02-13T21:11:42.980Z,2.00
2023-02-13T21:14:11.990Z,4.50
2023-02-13T21:16:41.400Z,0.50
2023-02-13T21:19:12.620Z,0.75
2023-02-13T21:21:44.223Z,3.75
2023-02-13T21:24:13.880Z,3.75
2023-02-13T21:26:43.896Z,3.00
2023-02-13T21:29:12.374Z,2.50
2023-02-13T21:31:44.296Z,0.00
2023-02-13T21:34:12.922Z,0.75
2023-02-13T21:36:41.355Z,2.00
2023-02-13T21:39:16.300Z,3.50
2023-02-13T21:41:47.315Z,0.00
2023-02-13T21:44:16.014Z,0.00
2023-02-13T21:46:45.023Z,1.00
2023-02-13T21:49:14.132Z,1.00
2023-02-13T21:51:42.460Z,1.00
2023-02-13T21:54:11.132Z,0.00
2023-02-13T21:56:40.224Z,1.00
2023-02-13T21:59:09.855Z,0.00
2023-02-13T22:01:48.027Z,1.50
2023-02-13T22:04:16.307Z,4.00
2023-02-13T22:06:44.444Z,0.00
2023-02-13T22:09:13.651Z,1.00
2023-02-13T22:11:42.314Z,1.00
2023-02-13T22:14:16.364Z,1.50
2023-02-13T22:16:45.477Z,1.00
2023-02-13T22:19:14.832Z,1.00
2023-02-13T22:21:43.279Z,1.00
2023-02-13T22:24:11.734Z,1.00
2023-02-13T22:26:40.952Z,3.00
2023-02-13T22:29:10.523Z,1.00
2023-02-13T22:31:40.391Z,1.00
2023-02-13T22:34:08.676Z,0.00
2023-02-13T22:36:39.193Z,0.25
2023-02-13T22:39:07.960Z,0.75
2023-02-13T22:41:36.185Z,0.50
2023-02-13T22:44:04.769Z,0.00
2023-02-13T22:46:34.028Z,0.50
2023-02-13T22:49:03.645Z,1.00
2023-02-13T22:51:33.148Z,1.00
2023-02-13T22:54:01.565Z,0.00
2023-02-13T22:56:30.597Z,0.00
2023-02-13T22:58:58.714Z,0.00
2023-02-13T23:01:27.527Z,0.00
2023-02-13T23:03:55.867Z,0.50
2023-02-13T23:06:25.868Z,0.00
2023-02-13T23:08:54.082Z,0.00
2023-02-13T23:11:40.523Z,0.25
2023-02-13T23:14:10.112Z,0.00
2023-02-13T23:16:52.593Z,0.25
2023-02-13T23:19:20.773Z,1.00
2023-02-13T23:21:50.488Z,0.75
2023-02-13T23:24:18.608Z,0.00
2023-02-13T23:26:46.688Z,0.75
2023-02-13T23:29:14.799Z,0.00
2023-02-13T23:31:43.022Z,0.75
2023-02-13T23:34:11.295Z,0.00
2023-02-13T23:36:39.561Z,0.00
2023-02-13T23:39:09.084Z,0.00
2023-02-13T23:41:41.462Z,0.00
2023-02-13T23:44:09.637Z,0.50
2023-02-13T23:46:37.799Z,0.00
2023-02-13T23:49:07.497Z,1.00
2023-02-13T23:51:35.858Z,0.25
2023-02-13T23:54:05.023Z,0.00
2023-02-13T23:56:34.679Z,0.00
2023-02-13T23:59:03.031Z,1.00
